Ramsey, United Kingdom
Current Conditions -  °F | °C
As of 10:50 AM on Wednesday 26 Nov 2014 (Local Time) from EGXT Reporting Station
Haze Haze  
Wind Chill: 40°   Ceiling: Unl
Heat Index: 45°   Visibility: 0.75mi
Dew Point: 45°   Wind: 9mph
Humidity: 100%   Direction: 70°ENE
Pressure: 29.88"   Gusts: NA
Location:  52.45°N, 0.11°W
Report Text: EGXT 261050Z 07008KT 1200 BR VV/// 07/07 Q1012 RED
Loading
Personal Weather Stations






























Interactive Weather Map New forecast layout! Learn more

10-Day Weather Forecast

Advertisements
Track Severe Weather on mobile